sensor_id;sensor_type;location;lat;lon;timestamp;P1;durP1;ratioP1;P2;durP2;ratioP2
56321;SDS011;42227;6.376;-10.782;2022-11-20T00:01:29;28.55;;;18.08;;
56321;SDS011;42227;6.376;-10.782;2022-11-20T00:03:58;25.95;;;17.45;;
56321;SDS011;42227;6.376;-10.782;2022-11-20T00:06:27;37.28;;;21.85;;
56321;SDS011;42227;6.376;-10.782;2022-11-20T00:08:57;50.65;;;24.00;;
56321;SDS011;42227;6.376;-10.782;2022-11-20T00:11:26;43.90;;;25.30;;
56321;SDS011;42227;6.376;-10.782;2022-11-20T00:13:57;47.28;;;23.73;;
56321;SDS011;42227;6.376;-10.782;2022-11-20T00:16:27;51.97;;;25.00;;
56321;SDS011;42227;6.376;-10.782;2022-11-20T00:18:57;32.15;;;21.80;;
56321;SDS011;42227;6.376;-10.782;2022-11-20T00:21:27;31.15;;;18.48;;
56321;SDS011;42227;6.376;-10.782;2022-11-20T00:23:56;39.33;;;18.83;;
56321;SDS011;42227;6.376;-10.782;2022-11-20T00:26:26;28.98;;;18.70;;
56321;SDS011;42227;6.376;-10.782;2022-11-20T00:28:58;29.42;;;17.23;;
56321;SDS011;42227;6.376;-10.782;2022-11-20T00:31:28;43.47;;;18.40;;
56321;SDS011;42227;6.376;-10.782;2022-11-20T00:33:57;31.02;;;19.08;;
56321;SDS011;42227;6.376;-10.782;2022-11-20T00:36:26;26.55;;;17.45;;
56321;SDS011;42227;6.376;-10.782;2022-11-20T00:38:56;24.85;;;18.50;;
56321;SDS011;42227;6.376;-10.782;2022-11-20T00:41:26;45.75;;;20.92;;
56321;SDS011;42227;6.376;-10.782;2022-11-20T00:43:55;23.35;;;18.20;;
56321;SDS011;42227;6.376;-10.782;2022-11-20T00:46:25;23.15;;;17.77;;
56321;SDS011;42227;6.376;-10.782;2022-11-20T00:48:54;29.50;;;18.92;;
56321;SDS011;42227;6.376;-10.782;2022-11-20T00:51:24;30.83;;;17.80;;
56321;SDS011;42227;6.376;-10.782;2022-11-20T00:53:57;26.27;;;18.55;;
56321;SDS011;42227;6.376;-10.782;2022-11-20T00:56:25;34.38;;;20.13;;
56321;SDS011;42227;6.376;-10.782;2022-11-20T00:58:54;26.27;;;18.55;;
56321;SDS011;42227;6.376;-10.782;2022-11-20T01:01:23;34.00;;;17.90;;
56321;SDS011;42227;6.376;-10.782;2022-11-20T01:03:54;24.83;;;18.95;;
56321;SDS011;42227;6.376;-10.782;2022-11-20T01:06:25;30.25;;;18.40;;
56321;SDS011;42227;6.376;-10.782;2022-11-20T01:09:02;25.25;;;19.63;;
56321;SDS011;42227;6.376;-10.782;2022-11-20T01:11:36;25.20;;;18.17;;
56321;SDS011;42227;6.376;-10.782;2022-11-20T01:14:07;30.02;;;19.45;;
56321;SDS011;42227;6.376;-10.782;2022-11-20T01:16:40;28.17;;;17.83;;
56321;SDS011;42227;6.376;-10.782;2022-11-20T01:19:12;40.80;;;18.13;;
56321;SDS011;42227;6.376;-10.782;2022-11-20T01:21:45;28.63;;;18.58;;
56321;SDS011;42227;6.376;-10.782;2022-11-20T01:24:16;25.35;;;17.33;;
56321;SDS011;42227;6.376;-10.782;2022-11-20T01:26:47;20.85;;;16.08;;
56321;SDS011;42227;6.376;-10.782;2022-11-20T01:29:18;20.80;;;15.40;;
56321;SDS011;42227;6.376;-10.782;2022-11-20T01:31:49;22.50;;;14.63;;
56321;SDS011;42227;6.376;-10.782;2022-11-20T01:34:18;22.75;;;11.38;;
56321;SDS011;42227;6.376;-10.782;2022-11-20T01:36:47;21.73;;;11.45;;
56321;SDS011;42227;6.376;-10.782;2022-11-20T01:39:18;11.18;;;8.15;;
56321;SDS011;42227;6.376;-10.782;2022-11-20T01:41:49;14.85;;;7.22;;
56321;SDS011;42227;6.376;-10.782;2022-11-20T01:44:19;9.15;;;6.32;;
56321;SDS011;42227;6.376;-10.782;2022-11-20T01:46:59;11.43;;;6.60;;
56321;SDS011;42227;6.376;-10.782;2022-11-20T01:49:37;9.35;;;6.75;;
56321;SDS011;42227;6.376;-10.782;2022-11-20T01:52:15;21.55;;;7.63;;
56321;SDS011;42227;6.376;-10.782;2022-11-20T01:54:53;8.02;;;6.50;;
56321;SDS011;42227;6.376;-10.782;2022-11-20T01:57:27;11.82;;;7.05;;
56321;SDS011;42227;6.376;-10.782;2022-11-20T02:00:00;13.98;;;8.13;;
56321;SDS011;42227;6.376;-10.782;2022-11-20T02:02:44;15.05;;;8.13;;
56321;SDS011;42227;6.376;-10.782;2022-11-20T02:05:30;13.27;;;7.55;;
56321;SDS011;42227;6.376;-10.782;2022-11-20T02:08:25;15.88;;;8.98;;
56321;SDS011;42227;6.376;-10.782;2022-11-20T02:10:54;10.50;;;8.30;;
56321;SDS011;42227;6.376;-10.782;2022-11-20T02:13:22;11.23;;;8.52;;
56321;SDS011;42227;6.376;-10.782;2022-11-20T02:15:50;13.35;;;8.77;;
56321;SDS011;42227;6.376;-10.782;2022-11-20T02:18:20;9.85;;;8.10;;
56321;SDS011;42227;6.376;-10.782;2022-11-20T02:20:50;14.30;;;8.10;;
56321;SDS011;42227;6.376;-10.782;2022-11-20T02:23:39;9.38;;;7.82;;
56321;SDS011;42227;6.376;-10.782;2022-11-20T02:26:28;13.13;;;7.68;;
56321;SDS011;42227;6.376;-10.782;2022-11-20T02:29:00;14.57;;;8.23;;
56321;SDS011;42227;6.376;-10.782;2022-11-20T02:31:33;11.40;;;8.02;;
56321;SDS011;42227;6.376;-10.782;2022-11-20T02:34:05;16.70;;;8.70;;
56321;SDS011;42227;6.376;-10.782;2022-11-20T02:36:34;15.05;;;8.38;;
56321;SDS011;42227;6.376;-10.782;2022-11-20T02:39:05;24.10;;;10.45;;
56321;SDS011;42227;6.376;-10.782;2022-11-20T02:41:36;22.90;;;15.30;;
56321;SDS011;42227;6.376;-10.782;2022-11-20T02:44:05;29.42;;;16.95;;
56321;SDS011;42227;6.376;-10.782;2022-11-20T02:46:33;24.30;;;16.27;;
56321;SDS011;42227;6.376;-10.782;2022-11-20T02:49:02;22.17;;;15.05;;
56321;SDS011;42227;6.376;-10.782;2022-11-20T02:51:31;29.60;;;16.00;;
56321;SDS011;42227;6.376;-10.782;2022-11-20T02:53:59;25.88;;;15.30;;
56321;SDS011;42227;6.376;-10.782;2022-11-20T02:56:28;25.17;;;13.85;;
56321;SDS011;42227;6.376;-10.782;2022-11-20T02:58:56;21.90;;;14.57;;
56321;SDS011;42227;6.376;-10.782;2022-11-20T03:01:25;26.45;;;15.95;;
56321;SDS011;42227;6.376;-10.782;2022-11-20T03:03:53;21.33;;;13.48;;
56321;SDS011;42227;6.376;-10.782;2022-11-20T03:06:21;21.38;;;13.57;;
56321;SDS011;42227;6.376;-10.782;2022-11-20T03:08:49;17.17;;;12.38;;
56321;SDS011;42227;6.376;-10.782;2022-11-20T03:11:18;22.52;;;11.48;;
56321;SDS011;42227;6.376;-10.782;2022-11-20T03:13:46;22.33;;;13.25;;
56321;SDS011;42227;6.376;-10.782;2022-11-20T03:16:15;15.10;;;12.40;;
56321;SDS011;42227;6.376;-10.782;2022-11-20T03:18:46;20.10;;;13.57;;
56321;SDS011;42227;6.376;-10.782;2022-11-20T03:21:14;21.05;;;11.73;;
56321;SDS011;42227;6.376;-10.782;2022-11-20T03:23:43;15.32;;;11.65;;
56321;SDS011;42227;6.376;-10.782;2022-11-20T03:26:13;15.57;;;11.43;;
56321;SDS011;42227;6.376;-10.782;2022-11-20T03:28:48;16.80;;;12.27;;
56321;SDS011;42227;6.376;-10.782;2022-11-20T03:31:19;23.13;;;12.13;;
56321;SDS011;42227;6.376;-10.782;2022-11-20T03:33:49;21.10;;;15.48;;
56321;SDS011;42227;6.376;-10.782;2022-11-20T03:36:18;22.30;;;12.52;;
56321;SDS011;42227;6.376;-10.782;2022-11-20T03:38:47;16.95;;;12.50;;
56321;SDS011;42227;6.376;-10.782;2022-11-20T03:41:18;17.77;;;13.80;;
56321;SDS011;42227;6.376;-10.782;2022-11-20T03:43:52;19.60;;;11.13;;
56321;SDS011;42227;6.376;-10.782;2022-11-20T03:46:22;15.35;;;11.73;;
56321;SDS011;42227;6.376;-10.782;2022-11-20T03:48:51;16.75;;;11.30;;
56321;SDS011;42227;6.376;-10.782;2022-11-20T03:51:20;15.10;;;10.40;;
56321;SDS011;42227;6.376;-10.782;2022-11-20T03:53:51;15.93;;;11.80;;
56321;SDS011;42227;6.376;-10.782;2022-11-20T03:56:28;21.70;;;12.43;;
56321;SDS011;42227;6.376;-10.782;2022-11-20T03:58:58;23.73;;;12.88;;
56321;SDS011;42227;6.376;-10.782;2022-11-20T04:01:31;17.80;;;12.90;;
56321;SDS011;42227;6.376;-10.782;2022-11-20T04:04:01;20.85;;;13.52;;
56321;SDS011;42227;6.376;-10.782;2022-11-20T04:06:30;20.77;;;11.45;;
56321;SDS011;42227;6.376;-10.782;2022-11-20T04:09:02;13.50;;;11.07;;
56321;SDS011;42227;6.376;-10.782;2022-11-20T04:11:34;14.18;;;10.07;;
56321;SDS011;42227;6.376;-10.782;2022-11-20T04:14:05;22.88;;;13.45;;
56321;SDS011;42227;6.376;-10.782;2022-11-20T04:16:39;16.98;;;11.00;;
56321;SDS011;42227;6.376;-10.782;2022-11-20T04:19:11;21.65;;;13.60;;
56321;SDS011;42227;6.376;-10.782;2022-11-20T04:21:41;16.13;;;11.73;;
56321;SDS011;42227;6.376;-10.782;2022-11-20T04:24:10;19.15;;;12.25;;
56321;SDS011;42227;6.376;-10.782;2022-11-20T04:26:39;12.15;;;9.73;;
56321;SDS011;42227;6.376;-10.782;2022-11-20T04:29:10;18.10;;;11.50;;
56321;SDS011;42227;6.376;-10.782;2022-11-20T04:31:39;18.38;;;11.57;;
56321;SDS011;42227;6.376;-10.782;2022-11-20T04:34:07;19.88;;;12.00;;
56321;SDS011;42227;6.376;-10.782;2022-11-20T04:36:35;14.48;;;11.40;;
56321;SDS011;42227;6.376;-10.782;2022-11-20T04:39:04;21.05;;;11.70;;
56321;SDS011;42227;6.376;-10.782;2022-11-20T04:41:34;12.75;;;10.45;;
56321;SDS011;42227;6.376;-10.782;2022-11-20T04:44:04;34.65;;;13.82;;
56321;SDS011;42227;6.376;-10.782;2022-11-20T04:46:34;14.18;;;11.18;;
56321;SDS011;42227;6.376;-10.782;2022-11-20T04:49:04;24.55;;;11.90;;
56321;SDS011;42227;6.376;-10.782;2022-11-20T04:51:33;19.55;;;12.02;;
56321;SDS011;42227;6.376;-10.782;2022-11-20T04:54:02;23.40;;;12.40;;
56321;SDS011;42227;6.376;-10.782;2022-11-20T04:56:30;23.60;;;14.55;;
56321;SDS011;42227;6.376;-10.782;2022-11-20T04:59:01;18.83;;;13.25;;
56321;SDS011;42227;6.376;-10.782;2022-11-20T05:01:30;15.93;;;13.27;;
56321;SDS011;42227;6.376;-10.782;2022-11-20T05:03:58;18.35;;;12.27;;
56321;SDS011;42227;6.376;-10.782;2022-11-20T05:06:27;14.25;;;10.02;;
56321;SDS011;42227;6.376;-10.782;2022-11-20T05:08:55;14.10;;;10.77;;
56321;SDS011;42227;6.376;-10.782;2022-11-20T05:11:23;18.48;;;10.68;;
56321;SDS011;42227;6.376;-10.782;2022-11-20T05:13:51;10.63;;;9.52;;
56321;SDS011;42227;6.376;-10.782;2022-11-20T05:16:21;13.70;;;11.63;;
56321;SDS011;42227;6.376;-10.782;2022-11-20T05:18:51;14.35;;;11.27;;
56321;SDS011;42227;6.376;-10.782;2022-11-20T05:21:20;19.27;;;13.30;;
56321;SDS011;42227;6.376;-10.782;2022-11-20T05:23:49;16.90;;;12.13;;
56321;SDS011;42227;6.376;-10.782;2022-11-20T05:26:18;17.52;;;12.30;;
56321;SDS011;42227;6.376;-10.782;2022-11-20T05:28:49;19.17;;;13.23;;
56321;SDS011;42227;6.376;-10.782;2022-11-20T05:31:19;23.63;;;11.55;;
56321;SDS011;42227;6.376;-10.782;2022-11-20T05:33:54;17.00;;;13.50;;
56321;SDS011;42227;6.376;-10.782;2022-11-20T05:36:24;16.83;;;11.00;;
56321;SDS011;42227;6.376;-10.782;2022-11-20T05:38:52;18.17;;;10.10;;
56321;SDS011;42227;6.376;-10.782;2022-11-20T05:41:27;14.55;;;10.27;;
56321;SDS011;42227;6.376;-10.782;2022-11-20T05:43:56;18.83;;;12.05;;
56321;SDS011;42227;6.376;-10.782;2022-11-20T05:46:24;15.05;;;11.57;;
56321;SDS011;42227;6.376;-10.782;2022-11-20T05:48:55;16.65;;;11.32;;
56321;SDS011;42227;6.376;-10.782;2022-11-20T05:51:25;14.80;;;11.15;;
56321;SDS011;42227;6.376;-10.782;2022-11-20T05:53:55;12.80;;;10.85;;
56321;SDS011;42227;6.376;-10.782;2022-11-20T05:56:24;15.07;;;10.35;;
56321;SDS011;42227;6.376;-10.782;2022-11-20T05:58:52;19.13;;;12.90;;
56321;SDS011;42227;6.376;-10.782;2022-11-20T06:01:21;18.35;;;11.80;;
56321;SDS011;42227;6.376;-10.782;2022-11-20T06:03:52;19.95;;;13.82;;
56321;SDS011;42227;6.376;-10.782;2022-11-20T06:06:21;13.65;;;12.25;;
56321;SDS011;42227;6.376;-10.782;2022-11-20T06:08:49;16.23;;;12.30;;
56321;SDS011;42227;6.376;-10.782;2022-11-20T06:11:18;16.65;;;11.93;;
56321;SDS011;42227;6.376;-10.782;2022-11-20T06:13:46;15.80;;;12.00;;
56321;SDS011;42227;6.376;-10.782;2022-11-20T06:16:16;18.60;;;10.75;;
56321;SDS011;42227;6.376;-10.782;2022-11-20T06:18:46;18.27;;;12.07;;
56321;SDS011;42227;6.376;-10.782;2022-11-20T06:21:15;18.60;;;12.20;;
56321;SDS011;42227;6.376;-10.782;2022-11-20T06:23:46;15.85;;;11.77;;
56321;SDS011;42227;6.376;-10.782;2022-11-20T06:26:19;27.42;;;13.50;;
56321;SDS011;42227;6.376;-10.782;2022-11-20T06:28:50;16.83;;;13.18;;
56321;SDS011;42227;6.376;-10.782;2022-11-20T06:31:19;14.90;;;11.90;;
56321;SDS011;42227;6.376;-10.782;2022-11-20T06:33:49;18.20;;;13.93;;
56321;SDS011;42227;6.376;-10.782;2022-11-20T06:36:18;15.32;;;11.60;;
56321;SDS011;42227;6.376;-10.782;2022-11-20T06:38:48;22.10;;;12.18;;
56321;SDS011;42227;6.376;-10.782;2022-11-20T06:41:18;21.17;;;16.40;;
56321;SDS011;42227;6.376;-10.782;2022-11-20T06:43:47;28.75;;;20.67;;
56321;SDS011;42227;6.376;-10.782;2022-11-20T06:46:16;37.28;;;27.65;;
56321;SDS011;42227;6.376;-10.782;2022-11-20T06:48:49;30.02;;;22.05;;
56321;SDS011;42227;6.376;-10.782;2022-11-20T06:51:17;22.88;;;18.15;;
56321;SDS011;42227;6.376;-10.782;2022-11-20T06:53:46;26.77;;;17.02;;
56321;SDS011;42227;6.376;-10.782;2022-11-20T06:56:14;22.77;;;15.88;;
56321;SDS011;42227;6.376;-10.782;2022-11-20T06:58:42;26.25;;;15.32;;
56321;SDS011;42227;6.376;-10.782;2022-11-20T07:01:11;30.40;;;15.55;;
56321;SDS011;42227;6.376;-10.782;2022-11-20T07:03:41;19.80;;;14.80;;
56321;SDS011;42227;6.376;-10.782;2022-11-20T07:06:09;28.85;;;16.27;;
56321;SDS011;42227;6.376;-10.782;2022-11-20T07:08:37;20.17;;;14.60;;
56321;SDS011;42227;6.376;-10.782;2022-11-20T07:11:06;26.50;;;15.60;;
56321;SDS011;42227;6.376;-10.782;2022-11-20T07:13:35;26.10;;;19.30;;
56321;SDS011;42227;6.376;-10.782;2022-11-20T07:16:04;27.73;;;18.42;;
56321;SDS011;42227;6.376;-10.782;2022-11-20T07:18:34;22.63;;;15.25;;
56321;SDS011;42227;6.376;-10.782;2022-11-20T07:21:03;16.85;;;14.07;;
56321;SDS011;42227;6.376;-10.782;2022-11-20T07:23:33;16.17;;;12.88;;
56321;SDS011;42227;6.376;-10.782;2022-11-20T07:26:08;17.75;;;13.95;;
56321;SDS011;42227;6.376;-10.782;2022-11-20T07:28:38;15.65;;;12.80;;
56321;SDS011;42227;6.376;-10.782;2022-11-20T07:31:06;15.32;;;13.00;;
56321;SDS011;42227;6.376;-10.782;2022-11-20T07:33:34;30.02;;;16.73;;
56321;SDS011;42227;6.376;-10.782;2022-11-20T07:36:02;18.70;;;13.63;;
56321;SDS011;42227;6.376;-10.782;2022-11-20T07:38:31;14.85;;;11.93;;
56321;SDS011;42227;6.376;-10.782;2022-11-20T07:40:59;19.88;;;12.95;;
56321;SDS011;42227;6.376;-10.782;2022-11-20T07:43:28;18.20;;;12.82;;
56321;SDS011;42227;6.376;-10.782;2022-11-20T07:45:57;16.85;;;13.88;;
56321;SDS011;42227;6.376;-10.782;2022-11-20T07:48:26;18.65;;;12.30;;
56321;SDS011;42227;6.376;-10.782;2022-11-20T07:50:55;17.48;;;11.80;;
56321;SDS011;42227;6.376;-10.782;2022-11-20T07:53:24;20.83;;;15.82;;
56321;SDS011;42227;6.376;-10.782;2022-11-20T07:56:04;22.30;;;16.48;;
56321;SDS011;42227;6.376;-10.782;2022-11-20T07:58:33;24.52;;;15.57;;
56321;SDS011;42227;6.376;-10.782;2022-11-20T08:01:05;20.27;;;13.88;;
56321;SDS011;42227;6.376;-10.782;2022-11-20T08:03:35;21.70;;;14.30;;
56321;SDS011;42227;6.376;-10.782;2022-11-20T08:06:04;24.52;;;14.93;;
56321;SDS011;42227;6.376;-10.782;2022-11-20T08:08:32;20.92;;;12.95;;
56321;SDS011;42227;6.376;-10.782;2022-11-20T08:11:08;18.40;;;13.50;;
56321;SDS011;42227;6.376;-10.782;2022-11-20T08:13:36;27.27;;;13.60;;
56321;SDS011;42227;6.376;-10.782;2022-11-20T08:16:04;29.65;;;14.57;;
56321;SDS011;42227;6.376;-10.782;2022-11-20T08:18:32;16.00;;;12.23;;
56321;SDS011;42227;6.376;-10.782;2022-11-20T08:21:02;17.30;;;10.27;;
56321;SDS011;42227;6.376;-10.782;2022-11-20T08:23:31;14.70;;;12.43;;
56321;SDS011;42227;6.376;-10.782;2022-11-20T08:25:59;22.45;;;14.18;;
56321;SDS011;42227;6.376;-10.782;2022-11-20T08:28:27;17.70;;;15.70;;
56321;SDS011;42227;6.376;-10.782;2022-11-20T08:30:59;29.90;;;19.60;;
56321;SDS011;42227;6.376;-10.782;2022-11-20T08:33:30;19.65;;;16.02;;
56321;SDS011;42227;6.376;-10.782;2022-11-20T08:36:01;22.40;;;15.07;;
56321;SDS011;42227;6.376;-10.782;2022-11-20T08:38:31;21.88;;;14.63;;
56321;SDS011;42227;6.376;-10.782;2022-11-20T08:40:59;30.35;;;16.60;;
56321;SDS011;42227;6.376;-10.782;2022-11-20T08:43:28;29.25;;;15.10;;
56321;SDS011;42227;6.376;-10.782;2022-11-20T08:45:57;27.17;;;19.00;;
56321;SDS011;42227;6.376;-10.782;2022-11-20T08:48:26;35.25;;;23.45;;
56321;SDS011;42227;6.376;-10.782;2022-11-20T08:50:57;32.70;;;20.23;;
56321;SDS011;42227;6.376;-10.782;2022-11-20T08:53:26;26.77;;;20.02;;
56321;SDS011;42227;6.376;-10.782;2022-11-20T08:55:56;33.00;;;18.55;;
56321;SDS011;42227;6.376;-10.782;2022-11-20T08:58:25;35.15;;;20.25;;
56321;SDS011;42227;6.376;-10.782;2022-11-20T09:00:53;37.08;;;19.13;;
56321;SDS011;42227;6.376;-10.782;2022-11-20T09:03:22;28.75;;;18.40;;
56321;SDS011;42227;6.376;-10.782;2022-11-20T09:06:02;18.95;;;14.95;;
56321;SDS011;42227;6.376;-10.782;2022-11-20T09:08:32;21.25;;;14.30;;
56321;SDS011;42227;6.376;-10.782;2022-11-20T09:11:00;18.63;;;13.07;;
56321;SDS011;42227;6.376;-10.782;2022-11-20T09:13:29;20.42;;;13.50;;
56321;SDS011;42227;6.376;-10.782;2022-11-20T09:16:00;19.60;;;11.93;;
56321;SDS011;42227;6.376;-10.782;2022-11-20T09:18:34;17.77;;;13.23;;
56321;SDS011;42227;6.376;-10.782;2022-11-20T09:21:04;20.13;;;12.60;;
56321;SDS011;42227;6.376;-10.782;2022-11-20T09:23:35;26.88;;;14.52;;
56321;SDS011;42227;6.376;-10.782;2022-11-20T09:26:04;26.15;;;13.05;;
56321;SDS011;42227;6.376;-10.782;2022-11-20T09:28:34;23.35;;;13.38;;
56321;SDS011;42227;6.376;-10.782;2022-11-20T09:31:06;22.70;;;14.57;;
56321;SDS011;42227;6.376;-10.782;2022-11-20T09:33:36;41.10;;;13.57;;
56321;SDS011;42227;6.376;-10.782;2022-11-20T09:36:04;23.00;;;12.60;;
56321;SDS011;42227;6.376;-10.782;2022-11-20T09:38:33;22.38;;;13.00;;
56321;SDS011;42227;6.376;-10.782;2022-11-20T09:41:05;17.80;;;13.05;;
56321;SDS011;42227;6.376;-10.782;2022-11-20T09:46:32;19.48;;;10.32;;
56321;SDS011;42227;6.376;-10.782;2022-11-20T09:55:01;18.60;;;12.07;;
56321;SDS011;42227;6.376;-10.782;2022-11-20T09:57:34;32.75;;;17.30;;
56321;SDS011;42227;6.376;-10.782;2022-11-20T10:00:05;14.95;;;9.27;;
56321;SDS011;42227;6.376;-10.782;2022-11-20T10:02:44;14.32;;;9.90;;
56321;SDS011;42227;6.376;-10.782;2022-11-20T10:05:27;21.52;;;11.23;;
56321;SDS011;42227;6.376;-10.782;2022-11-20T10:08:17;16.15;;;10.55;;
56321;SDS011;42227;6.376;-10.782;2022-11-20T10:10:52;13.95;;;10.43;;
56321;SDS011;42227;6.376;-10.782;2022-11-20T10:24:30;14.23;;;10.15;;
56321;SDS011;42227;6.376;-10.782;2022-11-20T10:30:03;16.08;;;9.05;;
56321;SDS011;42227;6.376;-10.782;2022-11-20T10:32:38;14.45;;;8.38;;
56321;SDS011;42227;6.376;-10.782;2022-11-20T10:37:56;16.33;;;8.93;;
56321;SDS011;42227;6.376;-10.782;2022-11-20T10:40:48;14.23;;;9.35;;
56321;SDS011;42227;6.376;-10.782;2022-11-20T10:43:27;20.33;;;8.52;;
56321;SDS011;42227;6.376;-10.782;2022-11-20T10:46:20;14.77;;;9.18;;
56321;SDS011;42227;6.376;-10.782;2022-11-20T10:48:50;17.27;;;9.52;;
56321;SDS011;42227;6.376;-10.782;2022-11-20T10:51:30;24.98;;;10.50;;
56321;SDS011;42227;6.376;-10.782;2022-11-20T11:02:24;13.35;;;10.63;;
56321;SDS011;42227;6.376;-10.782;2022-11-20T11:04:58;17.85;;;10.82;;
56321;SDS011;42227;6.376;-10.782;2022-11-20T11:07:40;16.15;;;10.05;;
56321;SDS011;42227;6.376;-10.782;2022-11-20T11:10:16;12.35;;;9.35;;
56321;SDS011;42227;6.376;-10.782;2022-11-20T11:12:48;14.77;;;9.75;;
56321;SDS011;42227;6.376;-10.782;2022-11-20T11:15:27;10.02;;;8.98;;
56321;SDS011;42227;6.376;-10.782;2022-11-20T11:17:57;19.42;;;10.35;;
56321;SDS011;42227;6.376;-10.782;2022-11-20T11:20:25;14.25;;;10.38;;
56321;SDS011;42227;6.376;-10.782;2022-11-20T11:22:57;12.88;;;8.88;;
56321;SDS011;42227;6.376;-10.782;2022-11-20T11:25:27;14.52;;;10.68;;
56321;SDS011;42227;6.376;-10.782;2022-11-20T11:27:58;15.20;;;10.30;;
56321;SDS011;42227;6.376;-10.782;2022-11-20T11:30:42;16.13;;;11.18;;
56321;SDS011;42227;6.376;-10.782;2022-11-20T11:33:12;21.73;;;11.55;;
56321;SDS011;42227;6.376;-10.782;2022-11-20T11:38:27;20.85;;;10.13;;
56321;SDS011;42227;6.376;-10.782;2022-11-20T11:40:59;14.32;;;8.48;;
56321;SDS011;42227;6.376;-10.782;2022-11-20T11:43:28;12.05;;;9.13;;
56321;SDS011;42227;6.376;-10.782;2022-11-20T11:46:05;13.35;;;9.77;;
56321;SDS011;42227;6.376;-10.782;2022-11-20T11:48:57;28.33;;;12.75;;
56321;SDS011;42227;6.376;-10.782;2022-11-20T11:51:26;18.02;;;9.15;;
56321;SDS011;42227;6.376;-10.782;2022-11-20T11:54:02;12.00;;;10.20;;
56321;SDS011;42227;6.376;-10.782;2022-11-20T11:56:38;19.05;;;10.82;;
56321;SDS011;42227;6.376;-10.782;2022-11-20T11:59:06;15.23;;;9.35;;
56321;SDS011;42227;6.376;-10.782;2022-11-20T12:01:44;12.27;;;10.55;;
56321;SDS011;42227;6.376;-10.782;2022-11-20T12:04:32;13.75;;;9.52;;
56321;SDS011;42227;6.376;-10.782;2022-11-20T12:07:20;42.65;;;22.42;;
56321;SDS011;42227;6.376;-10.782;2022-11-20T12:10:20;23.98;;;15.40;;
56321;SDS011;42227;6.376;-10.782;2022-11-20T12:12:53;18.85;;;10.70;;
56321;SDS011;42227;6.376;-10.782;2022-11-20T12:15:44;63.58;;;46.67;;
56321;SDS011;42227;6.376;-10.782;2022-11-20T12:18:20;51.97;;;35.58;;
56321;SDS011;42227;6.376;-10.782;2022-11-20T12:23:45;24.17;;;14.73;;
56321;SDS011;42227;6.376;-10.782;2022-11-20T12:26:32;37.97;;;13.15;;
56321;SDS011;42227;6.376;-10.782;2022-11-20T12:40:11;7.80;;;6.82;;
56321;SDS011;42227;6.376;-10.782;2022-11-20T12:57:29;13.00;;;8.25;;
56321;SDS011;42227;6.376;-10.782;2022-11-20T13:05:21;29.10;;;8.77;;
56321;SDS011;42227;6.376;-10.782;2022-11-20T13:08:06;10.75;;;6.25;;
56321;SDS011;42227;6.376;-10.782;2022-11-20T13:11:06;8.73;;;7.10;;
56321;SDS011;42227;6.376;-10.782;2022-11-20T13:19:01;12.27;;;7.35;;
56321;SDS011;42227;6.376;-10.782;2022-11-20T13:21:41;11.63;;;7.32;;
56321;SDS011;42227;6.376;-10.782;2022-11-20T13:29:35;13.98;;;8.25;;
56321;SDS011;42227;6.376;-10.782;2022-11-20T13:32:14;24.98;;;8.48;;
56321;SDS011;42227;6.376;-10.782;2022-11-20T13:34:54;10.95;;;7.13;;
56321;SDS011;42227;6.376;-10.782;2022-11-20T13:45:23;18.27;;;7.50;;
56321;SDS011;42227;6.376;-10.782;2022-11-20T13:47:57;13.80;;;8.63;;
56321;SDS011;42227;6.376;-10.782;2022-11-20T13:50:39;11.02;;;7.88;;
56321;SDS011;42227;6.376;-10.782;2022-11-20T13:59:12;18.27;;;10.45;;
56321;SDS011;42227;6.376;-10.782;2022-11-20T14:01:54;14.80;;;8.20;;
56321;SDS011;42227;6.376;-10.782;2022-11-20T14:04:26;21.73;;;10.32;;
56321;SDS011;42227;6.376;-10.782;2022-11-20T14:06:57;20.20;;;6.85;;
56321;SDS011;42227;6.376;-10.782;2022-11-20T14:09:27;19.98;;;7.38;;
56321;SDS011;42227;6.376;-10.782;2022-11-20T14:11:57;19.55;;;8.88;;
56321;SDS011;42227;6.376;-10.782;2022-11-20T14:14:26;12.88;;;7.50;;
56321;SDS011;42227;6.376;-10.782;2022-11-20T14:17:15;12.25;;;7.20;;
56321;SDS011;42227;6.376;-10.782;2022-11-20T14:19:45;11.98;;;7.72;;
56321;SDS011;42227;6.376;-10.782;2022-11-20T14:22:17;10.93;;;6.28;;
56321;SDS011;42227;6.376;-10.782;2022-11-20T14:27:40;11.73;;;5.85;;
56321;SDS011;42227;6.376;-10.782;2022-11-20T14:30:12;18.65;;;7.32;;
56321;SDS011;42227;6.376;-10.782;2022-11-20T14:32:43;27.92;;;7.57;;
56321;SDS011;42227;6.376;-10.782;2022-11-20T14:35:15;13.20;;;6.35;;
56321;SDS011;42227;6.376;-10.782;2022-11-20T14:37:52;13.82;;;6.15;;
56321;SDS011;42227;6.376;-10.782;2022-11-20T14:40:26;12.65;;;7.28;;
56321;SDS011;42227;6.376;-10.782;2022-11-20T14:43:02;8.43;;;5.90;;
56321;SDS011;42227;6.376;-10.782;2022-11-20T14:46:08;9.82;;;7.00;;
56321;SDS011;42227;6.376;-10.782;2022-11-20T14:48:47;9.73;;;6.22;;
56321;SDS011;42227;6.376;-10.782;2022-11-20T14:51:28;23.75;;;7.22;;
56321;SDS011;42227;6.376;-10.782;2022-11-20T14:54:18;11.15;;;7.22;;
56321;SDS011;42227;6.376;-10.782;2022-11-20T14:56:57;13.93;;;5.93;;
56321;SDS011;42227;6.376;-10.782;2022-11-20T14:59:31;9.88;;;6.40;;
56321;SDS011;42227;6.376;-10.782;2022-11-20T15:02:02;22.15;;;7.63;;
56321;SDS011;42227;6.376;-10.782;2022-11-20T15:04:33;16.30;;;7.82;;
56321;SDS011;42227;6.376;-10.782;2022-11-20T15:07:11;8.38;;;5.90;;
56321;SDS011;42227;6.376;-10.782;2022-11-20T15:10:05;17.25;;;5.80;;
56321;SDS011;42227;6.376;-10.782;2022-11-20T15:12:55;20.58;;;7.15;;
56321;SDS011;42227;6.376;-10.782;2022-11-20T15:15:32;10.43;;;6.93;;
56321;SDS011;42227;6.376;-10.782;2022-11-20T15:18:03;18.30;;;7.22;;
56321;SDS011;42227;6.376;-10.782;2022-11-20T15:20:32;15.73;;;6.10;;
56321;SDS011;42227;6.376;-10.782;2022-11-20T15:23:08;13.80;;;5.33;;
56321;SDS011;42227;6.376;-10.782;2022-11-20T15:25:40;12.85;;;6.55;;
56321;SDS011;42227;6.376;-10.782;2022-11-20T15:30:48;18.63;;;5.50;;
56321;SDS011;42227;6.376;-10.782;2022-11-20T15:33:17;13.35;;;6.03;;
56321;SDS011;42227;6.376;-10.782;2022-11-20T15:35:45;10.60;;;6.35;;
56321;SDS011;42227;6.376;-10.782;2022-11-20T15:38:14;15.77;;;6.88;;
56321;SDS011;42227;6.376;-10.782;2022-11-20T15:40:42;8.02;;;5.15;;
56321;SDS011;42227;6.376;-10.782;2022-11-20T15:43:10;10.02;;;6.32;;
56321;SDS011;42227;6.376;-10.782;2022-11-20T15:45:41;17.92;;;6.35;;
56321;SDS011;42227;6.376;-10.782;2022-11-20T15:48:14;35.13;;;18.10;;
56321;SDS011;42227;6.376;-10.782;2022-11-20T15:51:06;10.30;;;5.93;;
56321;SDS011;42227;6.376;-10.782;2022-11-20T15:53:38;14.00;;;7.00;;
56321;SDS011;42227;6.376;-10.782;2022-11-20T15:56:11;18.83;;;6.03;;
56321;SDS011;42227;6.376;-10.782;2022-11-20T15:58:40;13.00;;;7.40;;
56321;SDS011;42227;6.376;-10.782;2022-11-20T16:01:12;36.92;;;7.50;;
56321;SDS011;42227;6.376;-10.782;2022-11-20T16:03:43;12.43;;;6.72;;
56321;SDS011;42227;6.376;-10.782;2022-11-20T16:06:11;13.27;;;5.75;;
56321;SDS011;42227;6.376;-10.782;2022-11-20T16:08:39;12.55;;;7.30;;
56321;SDS011;42227;6.376;-10.782;2022-11-20T16:11:10;22.05;;;8.75;;
56321;SDS011;42227;6.376;-10.782;2022-11-20T16:13:42;17.45;;;7.35;;
56321;SDS011;42227;6.376;-10.782;2022-11-20T16:16:29;14.63;;;7.78;;
56321;SDS011;42227;6.376;-10.782;2022-11-20T16:18:59;17.77;;;7.75;;
56321;SDS011;42227;6.376;-10.782;2022-11-20T16:21:27;11.32;;;6.78;;
56321;SDS011;42227;6.376;-10.782;2022-11-20T16:23:57;21.33;;;8.68;;